createdAt,value
2022-12-18T07:09:05.556Z,1.10
2022-12-18T07:28:05.823Z,0.90
2022-12-18T07:45:42.149Z,1.00
2022-12-18T07:46:43.099Z,0.90
2022-12-18T07:47:46.025Z,1.50
2022-12-18T07:48:43.451Z,0.70
2022-12-18T07:49:43.078Z,1.20
2022-12-18T07:50:43.091Z,0.90
2022-12-18T07:51:43.070Z,0.80
2022-12-18T07:52:43.066Z,1.20
2022-12-18T07:53:43.454Z,1.00
2022-12-18T07:54:43.140Z,0.90
2022-12-18T07:56:17.926Z,1.40
2022-12-18T07:56:43.005Z,0.50
2022-12-18T07:57:52.485Z,1.40
2022-12-18T07:58:43.003Z,0.70
2022-12-18T07:59:42.995Z,1.60
2022-12-18T08:00:42.979Z,1.70
2022-12-18T08:01:42.998Z,0.90
2022-12-18T08:02:43.043Z,0.70
2022-12-18T10:03:05.252Z,1.70
2022-12-18T10:04:05.967Z,1.50
2022-12-18T10:05:05.874Z,0.80
2022-12-18T10:06:05.900Z,1.20
2022-12-18T10:07:09.331Z,1.10
2022-12-18T10:08:05.840Z,0.60
2022-12-18T10:09:05.849Z,0.80
2022-12-18T10:10:05.808Z,1.20
2022-12-18T10:11:05.809Z,1.20
2022-12-18T10:12:05.802Z,0.60
2022-12-18T10:13:05.767Z,1.00
2022-12-18T10:14:05.799Z,1.50
2022-12-18T10:15:05.860Z,1.00
2022-12-18T10:16:05.799Z,1.00
2022-12-18T10:17:05.754Z,0.80
2022-12-18T10:18:05.730Z,1.00
2022-12-18T10:19:05.717Z,1.00
2022-12-18T10:20:05.797Z,1.10
2022-12-18T10:21:05.748Z,1.10
2022-12-18T10:22:05.725Z,0.70
2022-12-18T10:23:05.722Z,1.00
2022-12-18T10:24:05.751Z,0.80
2022-12-18T10:25:05.662Z,0.80
2022-12-18T10:26:05.660Z,1.20
2022-12-18T10:27:05.710Z,0.80
2022-12-18T10:28:05.629Z,1.20
2022-12-18T10:29:05.959Z,1.00
2022-12-18T10:30:05.686Z,1.00
2022-12-18T10:31:05.645Z,1.60
2022-12-18T10:32:05.614Z,1.00
2022-12-18T10:33:05.706Z,1.20
2022-12-18T10:34:05.664Z,1.30
2022-12-18T10:35:05.593Z,0.80
2022-12-18T10:36:05.551Z,0.90
2022-12-18T10:37:05.551Z,1.40
2022-12-18T10:38:05.565Z,1.20
2022-12-18T10:39:05.565Z,1.00
2022-12-18T10:40:05.531Z,0.90
2022-12-18T10:41:05.551Z,1.50
2022-12-18T10:42:05.524Z,1.30
2022-12-18T10:43:05.484Z,1.10
2022-12-18T10:44:05.506Z,0.80
2022-12-18T10:45:05.486Z,1.10
2022-12-18T10:46:05.509Z,1.10
2022-12-18T10:47:10.206Z,1.30
2022-12-18T10:48:05.483Z,1.50
2022-12-18T10:49:05.458Z,0.90
2022-12-18T10:50:05.427Z,0.70
2022-12-18T10:51:13.655Z,1.10
2022-12-18T10:52:05.429Z,1.00
2022-12-18T10:53:05.392Z,0.80
2022-12-18T10:54:06.399Z,1.10
2022-12-18T10:55:05.400Z,1.10
2022-12-18T10:56:05.415Z,1.00
2022-12-18T10:59:21.605Z,0.60
2022-12-18T11:00:22.430Z,0.80
2022-12-18T11:01:23.640Z,1.10
2022-12-18T11:02:22.574Z,0.90
2022-12-18T11:03:22.380Z,0.90
2022-12-18T11:04:22.320Z,0.90
2022-12-18T11:05:22.375Z,1.30
2022-12-18T11:06:22.372Z,1.10
2022-12-18T11:07:22.281Z,0.90
2022-12-18T11:08:22.293Z,1.10
2022-12-18T11:09:22.330Z,1.10
2022-12-18T11:10:22.277Z,1.50
2022-12-18T11:11:22.239Z,0.90
2022-12-18T13:01:09.333Z,1.40
2022-12-18T13:02:10.172Z,1.90
2022-12-18T13:03:10.375Z,1.30
2022-12-18T13:04:09.987Z,1.30
2022-12-18T13:05:09.991Z,0.80
2022-12-18T13:06:10.065Z,0.70
2022-12-18T13:07:10.007Z,1.00
2022-12-18T13:08:09.968Z,1.50
2022-12-18T13:09:09.952Z,0.90
2022-12-18T13:10:09.961Z,0.60
2022-12-18T13:11:09.970Z,0.90
2022-12-18T13:12:09.986Z,0.80
2022-12-18T13:13:10.525Z,1.00
2022-12-18T13:14:09.933Z,0.90
2022-12-18T13:15:18.986Z,1.10
2022-12-18T13:16:09.900Z,1.40
2022-12-18T13:17:09.948Z,1.20
2022-12-18T13:18:09.923Z,1.30
2022-12-18T13:31:21.130Z,1.00
2022-12-18T14:02:38.359Z,1.20
2022-12-18T14:03:39.201Z,0.70
2022-12-18T14:04:38.950Z,0.80
2022-12-18T14:05:39.942Z,1.40
2022-12-18T14:06:38.984Z,0.70
2022-12-18T14:13:58.331Z,1.60
2022-12-18T14:31:09.304Z,1.00
2022-12-18T14:53:42.580Z,1.20
2022-12-18T14:54:42.863Z,1.10
2022-12-18T14:55:42.609Z,1.30
2022-12-18T14:56:42.608Z,2.60
2022-12-18T14:57:42.568Z,1.40
2022-12-18T14:58:42.617Z,1.40
2022-12-18T14:59:42.563Z,1.40
2022-12-18T15:00:42.501Z,1.70
2022-12-18T15:01:42.598Z,1.60
2022-12-18T15:02:43.434Z,1.20
2022-12-18T15:03:43.122Z,1.40
2022-12-18T15:04:44.216Z,1.00
2022-12-18T15:05:42.463Z,1.20
2022-12-18T15:06:42.511Z,1.30
2022-12-18T15:07:42.509Z,1.50
2022-12-18T15:08:42.439Z,1.20
2022-12-18T15:09:42.455Z,1.40
2022-12-18T15:10:42.445Z,0.90
2022-12-18T15:11:42.420Z,1.20
2022-12-18T15:12:42.422Z,1.00
2022-12-18T15:13:42.785Z,1.50
2022-12-18T15:14:42.517Z,0.70
2022-12-18T15:15:42.425Z,0.90
2022-12-18T15:16:46.074Z,1.00
2022-12-18T15:17:42.331Z,1.20
2022-12-18T15:18:42.350Z,1.40
2022-12-18T15:19:42.350Z,1.20
2022-12-18T15:20:42.322Z,1.10
2022-12-18T15:21:42.383Z,1.60
2022-12-18T15:22:42.296Z,1.70
2022-12-18T15:23:42.650Z,0.90
2022-12-18T15:28:59.585Z,1.10
2022-12-18T15:30:00.434Z,1.00
2022-12-18T15:31:00.400Z,1.30
2022-12-18T15:32:00.289Z,1.20
2022-12-18T15:33:00.301Z,1.50
2022-12-18T15:34:00.290Z,1.50
2022-12-18T15:35:00.311Z,1.40
2022-12-18T15:36:00.262Z,2.00
2022-12-18T15:37:00.309Z,1.30
2022-12-18T15:38:00.213Z,1.50
2022-12-18T15:39:04.207Z,1.20
2022-12-18T15:40:00.313Z,1.20
2022-12-18T15:41:00.229Z,1.00
2022-12-18T15:42:00.190Z,1.50
2022-12-18T15:43:00.280Z,0.80
2022-12-18T15:44:00.201Z,1.60
2022-12-18T15:45:00.307Z,1.10
2022-12-18T15:46:00.456Z,1.40
2022-12-18T15:47:00.257Z,1.60
2022-12-18T15:48:00.218Z,1.60
2022-12-18T15:49:02.675Z,1.40
2022-12-18T15:50:00.134Z,1.30
2022-12-18T15:51:00.214Z,1.50
2022-12-18T15:52:00.131Z,1.40
2022-12-18T15:53:00.403Z,1.00
2022-12-18T15:54:00.333Z,1.40
2022-12-18T15:55:00.131Z,1.40
2022-12-18T15:56:01.266Z,1.30
2022-12-18T15:57:00.183Z,1.10
2022-12-18T15:58:00.089Z,1.40
2022-12-18T15:59:00.044Z,1.50
2022-12-18T16:00:00.120Z,1.10
2022-12-18T16:01:00.156Z,1.30
2022-12-18T16:02:00.096Z,1.10
2022-12-18T16:17:59.024Z,1.10
2022-12-18T16:19:00.114Z,1.20
2022-12-18T16:19:59.899Z,2.90
2022-12-18T16:20:59.886Z,2.00
2022-12-18T16:21:59.839Z,1.80
2022-12-18T16:22:59.954Z,1.50
2022-12-18T16:23:59.806Z,1.60
2022-12-18T16:24:59.817Z,1.70
2022-12-18T16:25:59.933Z,2.20
2022-12-18T16:26:59.809Z,1.30
2022-12-18T16:27:59.781Z,1.40
2022-12-18T16:36:30.996Z,2.10
2022-12-18T16:37:31.737Z,2.00
2022-12-18T16:38:31.338Z,1.60
2022-12-18T16:39:31.300Z,1.60
2022-12-18T16:40:31.412Z,1.20
2022-12-18T16:41:31.300Z,2.10
2022-12-18T16:42:31.305Z,2.30
2022-12-18T16:43:31.257Z,1.30
2022-12-18T16:44:31.298Z,1.30
2022-12-18T16:45:31.277Z,1.50
2022-12-18T16:46:31.290Z,2.40
2022-12-18T16:47:31.227Z,3.00
2022-12-18T16:48:31.213Z,1.40
2022-12-18T16:49:31.223Z,3.60
2022-12-18T16:50:31.187Z,6.40
2022-12-18T16:51:31.311Z,1.90
2022-12-18T16:52:31.192Z,2.40
2022-12-18T16:53:31.185Z,1.70
2022-12-18T16:54:31.309Z,1.10
2022-12-18T16:55:31.248Z,1.80
2022-12-18T17:11:32.701Z,3.70
2022-12-18T17:12:33.514Z,2.80
2022-12-18T17:13:33.330Z,4.20
2022-12-18T17:14:33.379Z,2.00
2022-12-18T17:15:33.387Z,2.90
2022-12-18T17:16:33.368Z,1.80
2022-12-18T17:17:33.279Z,3.00
2022-12-18T17:18:33.263Z,1.60
2022-12-18T17:19:33.286Z,2.30
2022-12-18T17:20:33.275Z,2.30
2022-12-18T17:21:33.333Z,1.70
2022-12-18T17:22:33.292Z,2.10
2022-12-18T17:23:33.237Z,3.30
2022-12-18T17:24:35.368Z,5.10
2022-12-18T17:25:33.410Z,3.20
2022-12-18T17:26:33.214Z,2.00
2022-12-18T17:27:33.236Z,1.80
2022-12-18T17:28:33.170Z,1.90
2022-12-18T17:29:33.233Z,1.90
2022-12-18T17:30:33.099Z,1.80
2022-12-18T17:31:33.265Z,2.20
2022-12-18T17:32:33.102Z,2.10
2022-12-18T17:33:33.092Z,3.80
2022-12-18T17:48:15.153Z,7.80
2022-12-18T17:49:15.823Z,4.80
2022-12-18T17:50:15.988Z,2.60
2022-12-18T17:51:15.787Z,1.50
2022-12-18T17:52:15.876Z,2.00
2022-12-18T17:53:15.837Z,4.30
2022-12-18T17:54:15.780Z,1.80
2022-12-18T17:55:15.746Z,2.50
2022-12-18T18:36:27.194Z,2.40
2022-12-18T18:37:28.123Z,2.50
2022-12-18T18:38:28.084Z,3.00
2022-12-18T18:39:28.026Z,1.80
2022-12-18T18:40:28.080Z,2.50
2022-12-18T18:41:28.001Z,2.00
2022-12-18T18:42:27.983Z,2.00
2022-12-18T18:43:27.961Z,2.00
2022-12-18T18:44:28.011Z,2.40
2022-12-18T18:45:28.017Z,2.50
2022-12-18T18:46:27.941Z,2.20
2022-12-18T18:47:27.971Z,2.50
2022-12-18T18:48:28.771Z,2.50
2022-12-18T18:49:28.224Z,2.20
2022-12-18T18:50:27.905Z,2.90
2022-12-18T18:55:41.070Z,2.80
2022-12-18T19:01:14.561Z,3.80
2022-12-18T19:02:15.380Z,3.30
2022-12-18T19:03:15.612Z,2.60
2022-12-18T19:51:14.287Z,2.70
2022-12-18T19:52:14.986Z,3.20
2022-12-18T19:53:15.066Z,3.30
2022-12-18T19:54:17.394Z,3.30
2022-12-18T19:55:14.958Z,3.80
2022-12-18T19:56:14.862Z,3.70
2022-12-18T19:57:14.973Z,3.50
2022-12-18T19:58:14.907Z,3.10
2022-12-18T19:59:14.950Z,3.40
2022-12-18T20:00:18.697Z,3.10
2022-12-18T20:03:52.392Z,4.00
2022-12-18T20:48:39.562Z,3.40
2022-12-18T20:49:40.273Z,3.20
2022-12-18T20:50:40.233Z,3.90
2022-12-18T20:51:40.109Z,2.90
2022-12-18T20:52:40.182Z,3.60
2022-12-18T21:05:46.388Z,2.40
2022-12-18T21:06:51.265Z,3.50
2022-12-18T21:07:47.113Z,2.60
2022-12-18T21:08:47.095Z,4.30
2022-12-18T21:09:47.051Z,3.60
2022-12-18T21:10:47.077Z,4.00
2022-12-18T21:11:47.179Z,4.10
2022-12-18T21:12:58.694Z,3.10
2022-12-18T21:13:47.025Z,3.90
2022-12-18T21:14:47.072Z,2.80
2022-12-18T21:15:46.978Z,3.80
2022-12-18T21:16:57.997Z,3.70
2022-12-18T21:17:47.036Z,3.70
2022-12-18T22:22:35.109Z,3.60
